createdAt,value
2022-08-29T00:01:15.308Z,13.38
2022-08-29T00:03:18.442Z,13.52
2022-08-29T00:05:24.971Z,10.13
2022-08-29T00:07:27.895Z,12.13
2022-08-29T00:09:30.587Z,15.93
2022-08-29T00:11:34.681Z,10.18
2022-08-29T00:13:37.298Z,15.57
2022-08-29T00:15:44.705Z,18.25
2022-08-29T00:17:48.490Z,10.77
2022-08-29T00:19:51.047Z,11.13
2022-08-29T00:21:54.036Z,13.13
2022-08-29T00:23:56.642Z,17.55
2022-08-29T00:25:59.254Z,12.95
2022-08-29T00:28:03.311Z,12.25
2022-08-29T00:30:07.508Z,15.77
2022-08-29T00:32:10.255Z,16.35
2022-08-29T00:34:12.948Z,15.25
2022-08-29T00:36:15.523Z,11.13
2022-08-29T00:38:19.196Z,12.45
2022-08-29T00:40:28.787Z,12.55
2022-08-29T00:42:31.524Z,17.75
2022-08-29T00:44:35.807Z,14.13
2022-08-29T00:46:47.797Z,10.95
2022-08-29T00:48:56.123Z,11.82
2022-08-29T00:51:04.347Z,11.70
2022-08-29T00:53:10.235Z,11.45
2022-08-29T00:55:15.897Z,14.95
2022-08-29T00:57:20.692Z,13.23
2022-08-29T00:59:27.748Z,16.30
2022-08-29T01:01:31.858Z,14.38
2022-08-29T01:03:36.896Z,17.23
2022-08-29T01:05:46.248Z,17.63
2022-08-29T01:07:49.490Z,13.75
2022-08-29T01:09:52.944Z,8.10
2022-08-29T01:12:13.432Z,17.02
2022-08-29T01:14:15.409Z,16.27
2022-08-29T01:16:20.569Z,17.25
2022-08-29T01:18:30.267Z,9.77
2022-08-29T01:20:40.351Z,14.32
2022-08-29T01:22:56.769Z,13.23
2022-08-29T01:25:01.213Z,17.83
2022-08-29T01:27:04.122Z,13.48
2022-08-29T01:29:06.704Z,13.02
2022-08-29T01:31:12.856Z,13.93
2022-08-29T01:33:15.459Z,14.63
2022-08-29T01:35:18.114Z,12.48
2022-08-29T01:37:21.437Z,11.63
2022-08-29T01:39:27.027Z,11.25
2022-08-29T01:41:32.879Z,9.63
2022-08-29T01:43:41.617Z,12.38
2022-08-29T01:45:43.299Z,11.88
2022-08-29T01:47:45.918Z,11.80
2022-08-29T01:49:48.661Z,15.65
2022-08-29T01:51:51.700Z,17.83
2022-08-29T01:53:54.615Z,11.90
2022-08-29T01:55:57.164Z,13.57
2022-08-29T01:58:01.114Z,13.43
2022-08-29T02:00:05.593Z,16.48
2022-08-29T02:02:15.515Z,15.70
2022-08-29T02:04:18.619Z,15.55
2022-08-29T02:06:21.461Z,12.75
2022-08-29T02:08:24.061Z,10.10
2022-08-29T02:10:26.814Z,10.15
2022-08-29T02:12:31.661Z,14.07
2022-08-29T02:14:36.221Z,15.18
2022-08-29T02:16:38.906Z,13.98
2022-08-29T02:18:42.375Z,15.52
2022-08-29T02:20:45.099Z,14.85
2022-08-29T02:22:47.769Z,15.18
2022-08-29T02:24:50.339Z,12.45
2022-08-29T02:26:53.713Z,11.88
2022-08-29T02:28:57.465Z,13.60
2022-08-29T02:31:01.683Z,10.90
2022-08-29T02:33:04.945Z,13.95
2022-08-29T02:35:09.124Z,10.57
2022-08-29T02:37:15.141Z,12.95
2022-08-29T02:39:19.341Z,14.10
2022-08-29T02:41:21.988Z,13.07
2022-08-29T02:43:25.543Z,13.77
2022-08-29T02:45:28.818Z,14.18
2022-08-29T02:47:33.795Z,17.33
2022-08-29T02:49:36.374Z,14.35
2022-08-29T02:51:38.971Z,12.60
2022-08-29T02:53:41.550Z,16.40
2022-08-29T02:55:47.996Z,16.83
2022-08-29T02:57:52.103Z,17.27
2022-08-29T02:59:54.697Z,18.50
2022-08-29T03:01:57.415Z,18.85
2022-08-29T03:04:02.194Z,20.40
2022-08-29T03:06:05.328Z,18.30
2022-08-29T03:08:10.529Z,23.23
2022-08-29T03:10:13.387Z,19.80
2022-08-29T03:12:15.998Z,21.20
2022-08-29T03:14:18.547Z,19.05
2022-08-29T03:16:21.184Z,16.55
2022-08-29T03:18:24.226Z,17.83
2022-08-29T03:20:28.198Z,21.52
2022-08-29T03:22:30.797Z,13.80
2022-08-29T03:24:35.507Z,15.80
2022-08-29T03:26:38.247Z,15.07
2022-08-29T03:28:40.873Z,18.85
2022-08-29T03:30:43.485Z,18.63
2022-08-29T03:32:47.044Z,14.25
2022-08-29T03:34:49.621Z,14.45
2022-08-29T03:36:53.576Z,16.15
2022-08-29T03:38:56.201Z,16.38
2022-08-29T03:40:58.776Z,14.80
2022-08-29T03:43:03.263Z,20.88
2022-08-29T03:45:08.459Z,23.13
2022-08-29T03:47:11.348Z,15.80
2022-08-29T03:49:15.569Z,17.65
2022-08-29T03:51:18.878Z,18.42
2022-08-29T03:53:22.934Z,16.67
2022-08-29T03:55:25.706Z,18.90
2022-08-29T03:57:33.083Z,19.92
2022-08-29T03:59:36.555Z,15.90
2022-08-29T04:01:39.336Z,17.30
2022-08-29T04:03:41.940Z,19.38
2022-08-29T04:05:44.526Z,20.35
2022-08-29T04:07:51.046Z,17.58
2022-08-29T04:09:54.981Z,24.13
2022-08-29T04:11:57.627Z,17.25
2022-08-29T04:14:00.323Z,15.50
2022-08-29T04:16:02.993Z,18.40
2022-08-29T04:18:08.177Z,16.60
2022-08-29T04:20:12.665Z,16.52
2022-08-29T04:22:15.304Z,15.90
2022-08-29T04:24:19.572Z,15.68
2022-08-29T04:26:38.957Z,18.02
2022-08-29T04:28:41.667Z,17.25
2022-08-29T04:30:51.857Z,13.65
2022-08-29T04:32:55.771Z,18.38
2022-08-29T04:34:58.840Z,15.93
2022-08-29T04:37:01.549Z,20.30
2022-08-29T04:39:05.890Z,12.40
2022-08-29T04:41:08.630Z,20.48
2022-08-29T04:43:12.886Z,14.52
2022-08-29T04:45:17.899Z,17.58
2022-08-29T04:47:22.196Z,14.80
2022-08-29T04:49:24.801Z,16.52
2022-08-29T04:51:27.740Z,20.33
2022-08-29T04:53:30.940Z,23.17
2022-08-29T04:55:33.527Z,16.17
2022-08-29T04:57:37.084Z,20.65
2022-08-29T04:59:41.038Z,20.58
2022-08-29T05:01:44.492Z,17.13
2022-08-29T05:03:49.551Z,16.80
2022-08-29T05:05:57.613Z,13.75
2022-08-29T05:08:00.232Z,13.20
2022-08-29T05:10:07.430Z,19.05
2022-08-29T05:12:10.468Z,22.45
2022-08-29T05:14:13.032Z,14.05
2022-08-29T05:16:18.573Z,16.17
2022-08-29T05:18:21.477Z,28.60
2022-08-29T05:20:24.071Z,18.30
2022-08-29T05:22:26.805Z,15.45
2022-08-29T05:24:31.409Z,13.77
2022-08-29T05:26:36.585Z,18.35
2022-08-29T05:28:39.178Z,20.85
2022-08-29T05:30:45.018Z,14.63
2022-08-29T05:32:49.031Z,19.92
2022-08-29T05:34:51.707Z,12.57
2022-08-29T05:36:54.416Z,17.48
2022-08-29T05:38:56.999Z,18.70
2022-08-29T05:41:00.096Z,18.17
2022-08-29T05:43:02.842Z,22.77
2022-08-29T05:45:06.223Z,28.73
2022-08-29T05:47:11.379Z,20.05
2022-08-29T05:49:15.264Z,18.52
2022-08-29T05:51:19.030Z,16.48
2022-08-29T05:53:21.810Z,14.57
2022-08-29T05:55:25.436Z,14.35
2022-08-29T05:57:28.140Z,15.80
2022-08-29T05:59:30.871Z,17.42
2022-08-29T06:01:34.532Z,16.75
2022-08-29T06:03:37.227Z,19.38
2022-08-29T06:05:42.437Z,16.85
2022-08-29T06:07:45.052Z,20.38
2022-08-29T06:09:47.680Z,23.58
2022-08-29T06:11:53.169Z,21.70
2022-08-29T06:13:56.999Z,29.20
2022-08-29T06:15:59.653Z,19.83
2022-08-29T06:18:02.359Z,23.67
2022-08-29T06:20:09.770Z,19.63
2022-08-29T06:22:13.686Z,22.33
2022-08-29T06:24:17.329Z,22.42
2022-08-29T06:26:20.664Z,22.83
2022-08-29T06:28:24.058Z,21.20
2022-08-29T06:30:27.142Z,26.23
2022-08-29T06:32:29.932Z,27.10
2022-08-29T06:34:32.555Z,24.05
2022-08-29T06:36:36.898Z,20.50
2022-08-29T06:38:41.195Z,23.95
2022-08-29T06:40:43.799Z,20.15
2022-08-29T06:42:46.475Z,21.48
2022-08-29T06:44:49.049Z,26.38
2022-08-29T06:46:51.660Z,19.58
2022-08-29T06:48:56.033Z,22.27
2022-08-29T06:51:01.102Z,25.50
2022-08-29T06:53:26.528Z,23.67
2022-08-29T06:55:28.021Z,27.00
2022-08-29T06:57:30.796Z,20.58
2022-08-29T06:59:33.565Z,20.88
2022-08-29T07:01:36.579Z,24.83
2022-08-29T07:03:39.716Z,23.83
2022-08-29T07:05:42.408Z,24.05
2022-08-29T07:07:46.726Z,20.90
2022-08-29T07:09:51.256Z,26.08
2022-08-29T07:11:55.289Z,29.30
2022-08-29T07:13:59.230Z,19.35
2022-08-29T07:16:04.570Z,19.52
2022-08-29T07:18:07.206Z,24.17
2022-08-29T07:20:14.005Z,24.58
2022-08-29T07:22:16.568Z,19.60
2022-08-29T07:24:24.239Z,18.73
2022-08-29T07:26:30.580Z,26.40
2022-08-29T07:28:34.964Z,22.23
2022-08-29T07:30:40.521Z,21.90
2022-08-29T07:32:45.238Z,25.33
2022-08-29T07:34:47.804Z,24.67
2022-08-29T07:36:50.396Z,20.58
2022-08-29T07:38:53.022Z,20.63
2022-08-29T07:40:59.469Z,18.88
2022-08-29T07:43:02.189Z,21.90
2022-08-29T07:45:09.436Z,20.77
2022-08-29T07:47:12.062Z,20.63
2022-08-29T07:49:15.260Z,22.80
2022-08-29T07:51:20.125Z,20.20
2022-08-29T07:53:22.742Z,20.80
2022-08-29T07:55:25.452Z,17.88
2022-08-29T07:57:28.785Z,19.48
2022-08-29T07:59:31.735Z,20.25
2022-08-29T08:01:36.076Z,19.13
2022-08-29T08:03:39.008Z,20.35
2022-08-29T08:05:41.571Z,20.75
2022-08-29T08:07:44.175Z,19.75
2022-08-29T08:09:49.915Z,18.48
2022-08-29T08:11:52.497Z,20.60
2022-08-29T08:13:56.056Z,17.75
2022-08-29T08:15:58.789Z,21.88
2022-08-29T08:18:02.745Z,21.13
2022-08-29T08:20:07.598Z,20.88
2022-08-29T08:22:10.156Z,19.10
2022-08-29T08:24:16.118Z,21.30
2022-08-29T08:26:22.415Z,21.77
2022-08-29T08:28:25.103Z,19.95
2022-08-29T08:30:27.770Z,21.88
2022-08-29T08:32:32.493Z,25.23
2022-08-29T08:34:36.817Z,22.05
2022-08-29T08:36:41.443Z,23.27
2022-08-29T08:38:44.424Z,21.08
2022-08-29T08:40:50.578Z,20.67
2022-08-29T08:43:00.331Z,18.58
2022-08-29T08:45:10.395Z,20.88
2022-08-29T08:47:15.681Z,21.02
2022-08-29T08:49:23.763Z,16.65
2022-08-29T08:51:31.774Z,19.58
2022-08-29T08:53:39.561Z,27.48
2022-08-29T08:55:44.420Z,20.23
2022-08-29T08:57:55.731Z,21.40
2022-08-29T08:59:59.686Z,18.20
2022-08-29T09:02:09.973Z,15.90
2022-08-29T09:04:42.268Z,16.90
2022-08-29T09:07:00.352Z,14.43
2022-08-29T09:09:18.381Z,14.90
2022-08-29T09:11:29.780Z,17.13
2022-08-29T09:13:43.675Z,16.55
2022-08-29T09:15:48.343Z,17.65
2022-08-29T09:17:53.728Z,18.92
2022-08-29T09:19:58.296Z,18.58
2022-08-29T09:22:12.017Z,17.08
2022-08-29T09:24:24.410Z,16.98
2022-08-29T09:26:28.314Z,16.67
2022-08-29T09:28:31.270Z,17.00
2022-08-29T09:30:36.375Z,16.98
2022-08-29T09:33:01.613Z,17.90
2022-08-29T09:35:19.617Z,11.43
2022-08-29T09:37:27.047Z,13.75
2022-08-29T09:39:32.061Z,12.43
2022-08-29T09:41:34.730Z,17.15
2022-08-29T09:43:48.119Z,13.25
2022-08-29T09:46:16.266Z,16.08
2022-08-29T09:48:18.996Z,19.05
2022-08-29T09:50:25.319Z,14.15
2022-08-29T09:52:29.221Z,16.38
2022-08-29T09:54:32.192Z,12.68
2022-08-29T09:56:38.273Z,13.18
2022-08-29T09:58:42.684Z,16.58
2022-08-29T10:01:01.320Z,12.52
2022-08-29T10:03:07.595Z,12.95
2022-08-29T10:05:26.695Z,12.85
2022-08-29T10:07:32.992Z,12.63
2022-08-29T10:09:40.219Z,18.10
2022-08-29T10:11:54.274Z,19.23
2022-08-29T10:14:05.064Z,15.23
2022-08-29T10:16:17.369Z,13.18
2022-08-29T10:18:32.559Z,11.02
2022-08-29T10:20:50.047Z,12.30
2022-08-29T10:23:00.518Z,12.20
2022-08-29T10:25:09.798Z,11.20
2022-08-29T10:27:24.956Z,11.80
2022-08-29T10:29:54.673Z,11.57
2022-08-29T10:32:10.463Z,15.13
2022-08-29T10:34:32.823Z,11.57
2022-08-29T10:36:39.747Z,12.30
2022-08-29T10:38:49.271Z,15.52
2022-08-29T10:40:58.524Z,12.40
2022-08-29T10:43:30.058Z,15.90
2022-08-29T10:45:40.996Z,11.55
2022-08-29T10:47:52.198Z,15.20
2022-08-29T10:50:10.109Z,13.77
2022-08-29T10:52:28.388Z,9.55
2022-08-29T10:56:44.121Z,10.90
2022-08-29T10:58:57.413Z,14.75
2022-08-29T11:01:11.915Z,13.43
2022-08-29T11:03:26.609Z,9.93
2022-08-29T11:05:43.817Z,15.20
2022-08-29T11:07:51.535Z,13.23
2022-08-29T11:10:00.198Z,9.82
2022-08-29T11:12:08.769Z,13.10
2022-08-29T11:14:21.501Z,12.77
2022-08-29T11:16:30.388Z,12.35
2022-08-29T11:18:43.232Z,11.27
2022-08-29T11:20:50.186Z,9.43
2022-08-29T11:22:57.268Z,10.95
2022-08-29T11:25:07.652Z,11.98
2022-08-29T11:27:18.494Z,9.38
2022-08-29T11:29:31.111Z,12.55
2022-08-29T11:31:46.051Z,13.25
2022-08-29T11:33:56.499Z,12.63
2022-08-29T11:36:25.933Z,11.52
2022-08-29T11:38:47.519Z,12.10
2022-08-29T11:41:27.159Z,10.57
2022-08-29T11:43:36.204Z,9.68
2022-08-29T11:45:41.424Z,10.20
2022-08-29T11:48:00.075Z,7.18
2022-08-29T11:50:08.952Z,10.32
2022-08-29T11:52:21.876Z,11.43
2022-08-29T11:54:49.964Z,10.93
2022-08-29T11:57:37.485Z,13.02
2022-08-29T11:59:59.445Z,8.48
2022-08-29T12:02:02.322Z,11.15
2022-08-29T12:04:06.247Z,11.18
2022-08-29T12:06:18.707Z,11.07
2022-08-29T12:08:37.399Z,8.20
2022-08-29T12:10:52.445Z,9.85
2022-08-29T12:12:57.489Z,12.88
2022-08-29T12:15:01.424Z,10.10
2022-08-29T12:17:06.694Z,8.82
2022-08-29T12:19:09.350Z,8.32
2022-08-29T12:21:45.561Z,9.23
2022-08-29T12:23:48.289Z,9.32
2022-08-29T12:28:37.102Z,11.27
2022-08-29T12:30:44.970Z,10.05
2022-08-29T12:32:58.543Z,7.40
2022-08-29T12:35:30.542Z,14.77
2022-08-29T12:37:50.707Z,17.40
2022-08-29T12:40:33.205Z,10.43
2022-08-29T12:42:47.313Z,9.60
2022-08-29T12:45:00.465Z,11.00
2022-08-29T12:47:08.431Z,9.77
2022-08-29T12:49:21.003Z,8.35
2022-08-29T12:51:37.164Z,10.02
2022-08-29T12:53:39.770Z,8.23
2022-08-29T12:55:44.965Z,5.57
2022-08-29T12:57:48.539Z,9.52
2022-08-29T12:59:53.357Z,12.55
2022-08-29T13:01:58.396Z,11.60
2022-08-29T13:04:06.824Z,10.57
2022-08-29T13:06:14.561Z,8.45
2022-08-29T13:08:28.693Z,10.10
2022-08-29T13:10:31.300Z,18.23
2022-08-29T13:12:36.852Z,11.05
2022-08-29T13:14:56.532Z,14.65
2022-08-29T13:16:59.368Z,13.52
2022-08-29T13:19:11.745Z,11.65
2022-08-29T13:21:23.195Z,8.48
2022-08-29T13:23:28.848Z,7.68
2022-08-29T13:25:32.420Z,7.53
2022-08-29T13:27:35.009Z,12.20
2022-08-29T13:29:39.866Z,7.15
2022-08-29T13:31:42.630Z,7.30
2022-08-29T13:34:19.349Z,5.85
2022-08-29T13:36:33.245Z,9.60
2022-08-29T13:38:35.845Z,5.43
2022-08-29T13:40:46.019Z,8.27
2022-08-29T13:42:48.708Z,6.38
2022-08-29T13:45:22.626Z,6.10
2022-08-29T13:47:28.696Z,7.53
2022-08-29T13:49:34.969Z,5.05
2022-08-29T13:51:37.535Z,7.68
2022-08-29T13:53:40.243Z,7.15
2022-08-29T13:55:48.288Z,9.82
2022-08-29T13:57:54.617Z,12.43
2022-08-29T13:59:58.525Z,15.18
2022-08-29T14:02:10.046Z,7.18
2022-08-29T14:04:36.773Z,7.45
2022-08-29T14:06:37.794Z,5.20
2022-08-29T14:08:45.184Z,7.88
2022-08-29T14:10:48.067Z,6.00
2022-08-29T14:15:13.261Z,5.97
2022-08-29T14:17:18.690Z,8.00
2022-08-29T14:19:21.715Z,5.97
2022-08-29T14:21:24.652Z,6.07
2022-08-29T14:23:28.600Z,7.60
2022-08-29T14:25:32.473Z,4.60
2022-08-29T14:27:35.541Z,7.20
2022-08-29T14:29:38.399Z,8.98
2022-08-29T14:31:41.156Z,4.60
2022-08-29T14:33:43.727Z,9.75
2022-08-29T14:35:47.720Z,7.72
2022-08-29T14:37:50.495Z,9.20
2022-08-29T14:39:54.442Z,6.10
2022-08-29T14:41:57.097Z,7.05
2022-08-29T14:43:59.980Z,7.68
2022-08-29T14:46:02.605Z,6.90
2022-08-29T14:48:06.383Z,7.32
2022-08-29T14:50:09.627Z,6.05
2022-08-29T14:52:14.895Z,5.38
2022-08-29T14:54:18.086Z,8.82
2022-08-29T14:56:47.053Z,5.90
2022-08-29T14:58:48.074Z,6.07
2022-08-29T15:00:51.369Z,7.47
2022-08-29T15:02:57.160Z,7.70
2022-08-29T15:04:59.760Z,6.53
2022-08-29T15:07:02.609Z,8.00
2022-08-29T15:09:05.479Z,5.20
2022-08-29T15:11:08.113Z,6.50
2022-08-29T15:13:12.094Z,6.53
2022-08-29T15:15:14.985Z,5.63
2022-08-29T15:17:18.056Z,5.40
2022-08-29T15:21:44.613Z,6.05
2022-08-29T15:23:48.913Z,6.18
2022-08-29T15:25:51.744Z,7.63
2022-08-29T15:27:54.845Z,5.63
2022-08-29T15:29:59.261Z,8.00
2022-08-29T15:32:02.158Z,8.55
2022-08-29T15:34:05.931Z,7.20
2022-08-29T15:36:09.396Z,10.23
2022-08-29T15:38:12.092Z,7.15
2022-08-29T15:40:15.727Z,6.90
2022-08-29T15:42:18.444Z,10.38
2022-08-29T15:44:21.072Z,5.72
2022-08-29T15:46:26.913Z,6.93
2022-08-29T15:48:29.557Z,10.02
2022-08-29T15:50:32.146Z,7.30
2022-08-29T15:52:35.455Z,29.23
2022-08-29T15:54:38.166Z,11.82
2022-08-29T15:56:40.857Z,13.75
2022-08-29T15:58:43.865Z,16.85
2022-08-29T16:00:50.287Z,10.15
2022-08-29T16:02:54.562Z,7.32
2022-08-29T16:04:57.753Z,14.43
2022-08-29T16:07:00.472Z,9.15
2022-08-29T16:09:03.953Z,8.10
2022-08-29T16:11:18.238Z,5.90
2022-08-29T16:13:21.150Z,5.65
2022-08-29T16:15:23.887Z,7.07
2022-08-29T16:17:26.534Z,5.60
2022-08-29T16:19:30.546Z,5.60
2022-08-29T16:21:34.645Z,5.78
2022-08-29T16:23:37.260Z,8.35
2022-08-29T16:25:44.209Z,12.07
2022-08-29T16:27:47.047Z,7.55
2022-08-29T16:29:49.624Z,8.00
2022-08-29T16:31:52.640Z,5.88
2022-08-29T16:33:55.335Z,8.75
2022-08-29T16:36:01.098Z,10.52
2022-08-29T16:38:03.828Z,9.38
2022-08-29T16:40:07.968Z,9.98
2022-08-29T16:42:12.185Z,10.27
2022-08-29T16:44:14.808Z,5.22
2022-08-29T16:46:18.343Z,8.55
2022-08-29T16:48:21.124Z,9.40
2022-08-29T16:50:23.955Z,7.07
2022-08-29T16:52:28.176Z,7.72
2022-08-29T16:54:33.121Z,11.30
2022-08-29T16:56:35.987Z,9.60
2022-08-29T16:58:56.378Z,6.22
2022-08-29T17:00:59.126Z,6.93
2022-08-29T17:03:01.869Z,8.95
2022-08-29T17:05:04.900Z,8.95
2022-08-29T17:07:07.896Z,7.18
2022-08-29T17:09:10.747Z,9.75
2022-08-29T17:11:12.368Z,5.75
2022-08-29T17:13:13.987Z,7.80
2022-08-29T17:15:15.551Z,8.68
2022-08-29T17:17:18.282Z,9.95
2022-08-29T17:19:21.991Z,6.30
2022-08-29T17:21:25.819Z,10.18
2022-08-29T17:23:29.617Z,12.70
2022-08-29T17:25:33.780Z,7.38
2022-08-29T17:27:36.793Z,8.45
2022-08-29T17:29:41.965Z,9.05
2022-08-29T17:31:44.584Z,6.32
2022-08-29T17:33:48.095Z,7.05
2022-08-29T17:35:50.872Z,10.75
2022-08-29T17:37:54.081Z,7.32
2022-08-29T17:39:57.025Z,9.57
2022-08-29T17:42:01.304Z,9.55
2022-08-29T17:44:06.763Z,10.40
2022-08-29T17:46:09.786Z,13.10
2022-08-29T17:48:12.677Z,7.80
2022-08-29T17:50:16.244Z,7.25
2022-08-29T17:52:19.148Z,6.90
2022-08-29T17:54:23.769Z,10.07
2022-08-29T17:56:30.310Z,6.78
2022-08-29T17:58:35.396Z,10.68
2022-08-29T18:00:38.040Z,8.75
2022-08-29T18:02:41.738Z,5.70
2022-08-29T18:04:46.777Z,8.30
2022-08-29T18:06:51.754Z,7.95
2022-08-29T18:08:54.353Z,9.35
2022-08-29T18:10:57.044Z,8.32
2022-08-29T18:12:59.892Z,8.35
2022-08-29T18:15:06.062Z,8.52
2022-08-29T18:17:08.870Z,12.15
2022-08-29T18:19:13.526Z,11.25
2022-08-29T18:21:18.614Z,9.40
2022-08-29T18:23:21.288Z,6.53
2022-08-29T18:25:24.002Z,12.90
2022-08-29T18:27:28.005Z,7.18
2022-08-29T18:29:30.562Z,9.57
2022-08-29T18:31:34.485Z,9.60
2022-08-29T18:33:57.179Z,12.98
2022-08-29T18:36:00.010Z,10.85
2022-08-29T18:38:02.625Z,9.68
2022-08-29T18:40:08.331Z,15.60
2022-08-29T18:42:30.438Z,11.68
2022-08-29T18:44:33.703Z,9.10
2022-08-29T18:46:40.877Z,13.35
2022-08-29T18:48:44.816Z,14.48
2022-08-29T18:50:48.487Z,12.10
2022-08-29T18:52:51.106Z,10.27
2022-08-29T18:54:54.255Z,14.05
2022-08-29T18:56:56.959Z,9.27
2022-08-29T18:58:59.804Z,7.78
2022-08-29T19:01:11.373Z,9.95
2022-08-29T19:03:15.581Z,9.93
2022-08-29T19:05:18.888Z,8.13
2022-08-29T19:07:24.475Z,9.40
2022-08-29T19:09:27.136Z,16.52
2022-08-29T19:11:29.823Z,11.52
2022-08-29T19:13:32.524Z,13.75
2022-08-29T19:15:41.265Z,12.88
2022-08-29T19:17:44.230Z,11.32
2022-08-29T19:20:10.017Z,12.27
2022-08-29T19:22:13.453Z,15.75
2022-08-29T19:24:16.065Z,9.38
2022-08-29T19:26:21.532Z,10.68
2022-08-29T19:28:24.269Z,9.43
2022-08-29T19:30:27.775Z,10.95
2022-08-29T19:32:30.348Z,16.00
2022-08-29T19:34:32.978Z,13.07
2022-08-29T19:36:39.093Z,8.75
2022-08-29T19:38:42.338Z,10.75
2022-08-29T19:40:45.770Z,9.93
2022-08-29T19:42:49.717Z,8.75
2022-08-29T19:44:52.364Z,11.15
2022-08-29T19:46:55.213Z,10.68
2022-08-29T19:48:57.895Z,10.77
2022-08-29T19:51:00.677Z,15.05
2022-08-29T19:53:05.316Z,14.25
2022-08-29T19:55:10.918Z,14.93
2022-08-29T19:57:14.705Z,12.30
2022-08-29T19:59:18.130Z,10.75
2022-08-29T20:01:21.433Z,11.85
2022-08-29T20:03:24.214Z,11.90
2022-08-29T20:05:27.105Z,13.25
2022-08-29T20:07:30.535Z,11.00
2022-08-29T20:09:35.966Z,10.02
2022-08-29T20:11:42.886Z,16.35
2022-08-29T20:13:50.612Z,12.35
2022-08-29T20:15:54.098Z,13.55
2022-08-29T20:17:57.370Z,17.98
2022-08-29T20:20:00.555Z,9.85
2022-08-29T20:22:03.288Z,14.05
2022-08-29T20:24:07.261Z,12.65
2022-08-29T20:26:12.771Z,13.48
2022-08-29T20:28:15.893Z,15.63
2022-08-29T20:30:24.947Z,12.73
2022-08-29T20:32:27.558Z,12.40
2022-08-29T20:34:30.575Z,10.60
2022-08-29T20:36:50.875Z,10.13
2022-08-29T20:38:53.445Z,11.32
2022-08-29T20:40:56.030Z,13.40
2022-08-29T20:43:00.250Z,10.10
2022-08-29T20:45:02.879Z,9.90
2022-08-29T20:47:06.928Z,12.65
2022-08-29T20:49:10.503Z,17.15
2022-08-29T20:51:13.248Z,17.73
2022-08-29T20:53:32.565Z,12.00
2022-08-29T20:55:36.560Z,15.05
2022-08-29T20:57:40.340Z,10.52
2022-08-29T20:59:44.842Z,13.70
2022-08-29T21:01:47.950Z,8.65
2022-08-29T21:04:08.113Z,10.30
2022-08-29T21:06:12.076Z,10.70
2022-08-29T21:08:17.635Z,10.05
2022-08-29T21:10:20.611Z,10.20
2022-08-29T21:12:27.651Z,14.20
2022-08-29T21:14:30.304Z,10.30
2022-08-29T21:16:36.233Z,11.50
2022-08-29T21:18:39.399Z,15.27
2022-08-29T21:20:53.924Z,10.00
2022-08-29T21:22:58.586Z,9.55
2022-08-29T21:25:01.195Z,15.20
2022-08-29T21:27:03.845Z,9.40
2022-08-29T21:29:08.254Z,9.88
2022-08-29T21:31:13.268Z,14.02
2022-08-29T21:33:17.387Z,11.18
2022-08-29T21:35:20.632Z,11.05
2022-08-29T21:37:24.560Z,11.98
2022-08-29T21:39:28.943Z,12.32
2022-08-29T21:41:32.362Z,11.20
2022-08-29T21:43:35.072Z,10.40
2022-08-29T21:45:37.681Z,11.40
2022-08-29T21:47:40.342Z,11.65
2022-08-29T21:49:44.249Z,10.13
2022-08-29T21:51:48.272Z,12.07
2022-08-29T21:53:52.913Z,10.10
2022-08-29T21:55:55.492Z,10.35
2022-08-29T21:57:59.715Z,11.15
2022-08-29T22:00:02.345Z,13.23
2022-08-29T22:02:05.263Z,9.32
2022-08-29T22:04:09.994Z,12.57
2022-08-29T22:06:15.078Z,13.32
2022-08-29T22:08:17.734Z,11.85
2022-08-29T22:10:24.424Z,11.20
2022-08-29T22:12:28.715Z,14.20
2022-08-29T22:14:49.196Z,10.85
2022-08-29T22:16:51.850Z,9.85
2022-08-29T22:18:54.807Z,9.05
2022-08-29T22:20:58.269Z,14.15
2022-08-29T22:23:02.268Z,13.48
2022-08-29T22:25:05.841Z,12.82
2022-08-29T22:27:09.212Z,11.18
2022-08-29T22:29:13.627Z,11.20
2022-08-29T22:31:16.680Z,16.95
2022-08-29T22:33:19.428Z,11.40
2022-08-29T22:35:23.367Z,9.77
2022-08-29T22:37:26.061Z,7.95
2022-08-29T22:39:30.071Z,10.77
2022-08-29T22:41:33.014Z,10.10
2022-08-29T22:43:35.622Z,8.63
2022-08-29T22:45:38.224Z,13.80
2022-08-29T22:47:42.826Z,15.63
2022-08-29T22:49:45.832Z,8.60
2022-08-29T22:51:48.981Z,11.77
2022-08-29T22:54:06.088Z,12.65
2022-08-29T22:56:10.537Z,13.05
2022-08-29T22:58:13.185Z,10.80
2022-08-29T23:00:21.533Z,8.23
2022-08-29T23:02:24.599Z,12.65
2022-08-29T23:04:27.238Z,10.60
2022-08-29T23:06:30.707Z,9.38
2022-08-29T23:08:33.379Z,8.25
2022-08-29T23:10:36.311Z,10.57
2022-08-29T23:12:40.553Z,10.55
2022-08-29T23:14:46.374Z,9.73
2022-08-29T23:16:49.567Z,9.10
2022-08-29T23:18:52.585Z,8.82
2022-08-29T23:20:55.203Z,12.07
2022-08-29T23:22:58.391Z,10.90
2022-08-29T23:25:01.197Z,9.18
2022-08-29T23:27:03.912Z,14.68
2022-08-29T23:29:07.962Z,11.23
2022-08-29T23:31:10.614Z,14.73
2022-08-29T23:33:13.318Z,10.13
2022-08-29T23:35:15.900Z,7.18
2022-08-29T23:37:18.569Z,11.90
2022-08-29T23:39:21.220Z,10.23
2022-08-29T23:41:24.017Z,10.18
2022-08-29T23:43:27.810Z,10.43
2022-08-29T23:45:32.523Z,7.63
2022-08-29T23:47:36.094Z,10.43
2022-08-29T23:49:38.757Z,11.38
2022-08-29T23:51:41.368Z,9.98
2022-08-29T23:53:45.675Z,9.43
2022-08-29T23:55:48.522Z,9.18
2022-08-29T23:57:51.120Z,9.80
